Time;durP1;ratioP1;P1;durP2;ratioP2;P2;SDS_P1;SDS_P2;PMS_P1;PMS_P2;Temp;Humidity;BMP_temperature;BMP_pressure;BME280_temperature;BME280_humidity;BME280_pressure;Samples;Min_cycle;Max_cycle;Signal;HPM_P1;HPM_P2
2022/03/08 00:02:09;;;;;;;;;41.00;38.75;;;;;5.43;39.26;101121.53;5057045;27;45649;-51
2022/03/08 00:04:35;;;;;;;;;42.00;37.50;;;;;5.43;38.89;101110.66;5054954;28;45476;-53
2022/03/08 00:07:00;;;;;;;;;48.25;34.25;;;;;5.49;40.06;101130.88;5056605;28;45432;-55
2022/03/08 00:09:26;;;;;;;;;39.25;32.00;;;;;5.37;39.43;101094.97;5089138;27;45336;-55
2022/03/08 00:11:52;;;;;;;;;40.50;37.00;;;;;5.62;39.71;101132.25;5054801;28;46223;-53
2022/03/08 00:14:18;;;;;;;;;47.25;38.75;;;;;5.61;39.78;101125.94;5053585;28;45306;-51
2022/03/08 00:16:43;;;;;;;;;48.25;34.50;;;;;5.61;40.00;101133.28;5038246;28;45629;-49
2022/03/08 00:19:09;;;;;;;;;41.50;32.25;;;;;5.60;39.00;101134.31;5056472;28;45283;-51
2022/03/08 00:21:34;;;;;;;;;33.50;31.50;;;;;5.53;39.54;101121.38;5055819;28;46378;-52
2022/03/08 00:24:00;;;;;;;;;46.00;36.75;;;;;5.57;39.88;101133.59;5056014;27;45419;-52
2022/03/08 00:26:25;;;;;;;;;39.25;32.50;;;;;5.51;39.98;101120.66;5056263;28;45479;-53
2022/03/08 00:28:51;;;;;;;;;34.00;31.50;;;;;5.42;39.49;101116.25;5056537;28;45537;-53
2022/03/08 00:31:16;;;;;;;;;51.75;39.50;;;;;5.48;40.83;101136.50;5056120;28;46025;-52
2022/03/08 00:33:42;;;;;;;;;39.50;37.00;;;;;5.35;40.16;101113.38;5054419;28;45415;-54
2022/03/08 00:36:07;;;;;;;;;34.75;32.50;;;;;5.46;40.88;101124.94;5054719;28;45463;-52
2022/03/08 00:38:33;;;;;;;;;32.00;30.75;;;;;5.50;40.63;101131.75;5056062;28;45454;-52
2022/03/08 00:40:58;;;;;;;;;40.50;33.25;;;;;5.48;39.56;101128.31;5055825;28;45473;-53
2022/03/08 00:43:24;;;;;;;;;44.50;37.75;;;;;5.43;40.49;101134.28;5053925;28;45325;-52
2022/03/08 00:45:49;;;;;;;;;39.00;32.25;;;;;5.37;40.49;101126.78;5054405;28;45398;-52
2022/03/08 00:48:15;;;;;;;;;44.00;36.75;;;;;5.39;39.93;101141.94;5054249;28;45309;-55
2022/03/08 00:50:41;;;;;;;;;39.75;34.75;;;;;5.14;41.11;101098.34;5055453;28;46465;-49
2022/03/08 00:53:06;;;;;;;;;33.00;32.50;;;;;5.39;41.08;101127.50;5055432;28;45313;-51
2022/03/08 00:55:32;;;;;;;;;39.00;36.25;;;;;5.37;40.88;101124.94;5055246;28;45599;-56
2022/03/08 00:57:58;;;;;;;;;37.50;32.75;;;;;5.40;40.59;101127.28;5048237;28;45696;-53
2022/03/08 01:00:24;;;;;;;;;40.50;35.75;;;;;5.39;40.96;101135.66;5050701;28;45371;-54
2022/03/08 01:02:50;;;;;;;;;43.00;35.60;;;;;5.32;39.93;101121.03;5054240;28;45598;-51
2022/03/08 01:05:15;;;;;;;;;40.50;33.25;;;;;5.31;40.57;101122.00;5055301;28;45392;-54
2022/03/08 01:07:41;;;;;;;;;39.00;36.25;;;;;5.34;40.79;101122.53;5055620;28;45441;-53
2022/03/08 01:10:09;;;;;;;;;47.75;33.75;;;;;5.10;40.31;101088.81;5053825;28;46154;-55
2022/03/08 01:12:34;;;;;;;;;44.40;36.20;;;;;4.83;41.16;101046.41;5054884;28;45368;-51
2022/03/08 01:15:01;;;;;;;;;43.25;37.25;;;;;5.07;41.25;101088.31;5055373;28;45369;-55
2022/03/08 01:17:27;;;;;;;;;41.00;36.25;;;;;5.24;40.46;101121.84;5055385;28;45622;-56
2022/03/08 01:19:52;;;;;;;;;41.25;35.00;;;;;5.06;40.97;101090.16;5055120;28;46090;-52
2022/03/08 01:22:18;;;;;;;;;39.00;34.75;;;;;5.04;40.45;101083.19;5054923;28;45321;-53
2022/03/08 01:24:43;;;;;;;;;31.75;29.25;;;;;5.04;41.54;101085.91;5053810;28;45480;-52
2022/03/08 01:27:09;;;;;;;;;41.75;36.25;;;;;5.01;41.45;101078.94;5058756;28;45454;-54
2022/03/08 01:29:34;;;;;;;;;45.50;36.00;;;;;5.17;40.13;101105.31;5058340;28;46147;-54
2022/03/08 01:32:00;;;;;;;;;43.25;30.75;;;;;5.14;41.18;101116.56;5058886;28;45393;-51
2022/03/08 01:34:25;;;;;;;;;20.50;14.25;;;;;5.12;41.14;101111.28;5057374;28;45836;-51
2022/03/08 01:36:51;;;;;;;;;39.75;34.75;;;;;4.79;40.93;101064.94;5057613;28;45417;-54
2022/03/08 01:39:16;;;;;;;;;45.50;39.75;;;;;5.13;41.76;101103.97;5058082;28;45427;-54
2022/03/08 01:41:42;;;;;;;;;39.00;36.25;;;;;5.07;40.83;101104.63;5073971;28;45400;-55
2022/03/08 01:44:08;;;;;;;;;40.25;33.75;;;;;5.08;40.83;101098.16;5058506;28;45879;-55
2022/03/08 01:46:36;;;;;;;;;44.80;37.20;;;;;4.80;41.34;101065.81;5058502;28;45378;-55
2022/03/08 01:49:03;;;;;;;;;44.75;37.00;;;;;5.08;41.11;101106.34;5056911;28;46670;-51
2022/03/08 01:51:28;;;;;;;;;39.00;31.00;;;;;5.06;41.26;101092.88;5058483;28;45314;-50
2022/03/08 01:53:54;;;;;;;;;45.00;35.25;;;;;5.06;41.42;101089.34;5056863;28;45722;-49
2022/03/08 01:56:19;;;;;;;;;38.00;33.00;;;;;5.07;41.77;101096.47;5056952;28;45576;-54
2022/03/08 01:58:45;;;;;;;;;46.75;38.75;;;;;5.08;41.39;101090.00;5057419;28;46055;-51
2022/03/08 02:01:10;;;;;;;;;38.50;33.25;;;;;4.83;41.29;101054.59;5058344;28;45396;-51
2022/03/08 02:03:36;;;;;;;;;46.25;40.75;;;;;5.06;41.03;101092.06;5057855;28;45376;-52
2022/03/08 02:06:01;;;;;;;;;37.25;33.50;;;;;4.98;40.99;101076.56;5058444;28;45447;-50
2022/03/08 02:08:27;;;;;;;;;39.50;34.25;;;;;4.92;41.41;101075.38;5090340;27;46505;-49
2022/03/08 02:10:53;;;;;;;;;39.50;35.75;;;;;4.98;41.84;101087.44;5039501;28;45453;-51
2022/03/08 02:13:19;;;;;;;;;46.75;36.25;;;;;4.93;41.72;101082.50;5057688;28;45485;-53
2022/03/08 02:15:49;;;;;;;;;44.25;33.75;;;;;4.87;41.40;101066.84;5053793;28;45683;-55
2022/03/08 02:18:14;;;;;;;;;42.25;37.25;;;;;4.66;41.56;101042.81;5045720;28;46756;-51
2022/03/08 02:20:40;;;;;;;;;43.25;37.25;;;;;4.93;41.72;101079.78;5057671;28;45567;-51
2022/03/08 02:23:05;;;;;;;;;33.75;31.25;;;;;4.91;41.65;101076.34;5057448;28;45409;-52
2022/03/08 02:25:31;;;;;;;;;42.50;36.00;;;;;4.90;41.96;101073.81;5057788;28;45419;-52
2022/03/08 02:27:56;;;;;;;;;43.25;35.00;;;;;4.89;41.40;101064.78;5057545;28;46368;-55
2022/03/08 02:30:23;;;;;;;;;38.75;30.25;;;;;4.88;41.12;101065.81;5057415;28;45479;-50
2022/03/08 02:32:48;;;;;;;;;41.00;35.50;;;;;4.88;41.55;101060.38;5056185;28;45387;-51
2022/03/08 02:35:15;;;;;;;;;46.50;37.00;;;;;4.83;42.20;101069.03;5057287;28;45706;-53
2022/03/08 02:37:43;;;;;;;;;43.75;35.50;;;;;4.53;42.44;101016.94;5056044;28;45750;-54
2022/03/08 02:40:10;;;;;;;;;42.80;35.20;;;;;4.52;41.41;101020.69;5057051;28;45270;-53
2022/03/08 02:42:35;;;;;;;;;47.50;36.00;;;;;4.72;41.62;101064.78;5055916;28;45337;-51
2022/03/08 02:45:01;;;;;;;;;48.00;39.00;;;;;4.66;41.74;101053.69;5057611;28;45638;-52
2022/03/08 02:47:27;;;;;;;;;43.75;36.00;;;;;4.64;41.97;101051.13;5056730;28;45404;-53
2022/03/08 02:49:52;;;;;;;;;37.25;30.75;;;;;4.33;42.28;100990.03;5072777;28;45442;-50
2022/03/08 02:52:18;;;;;;;;;41.50;32.00;;;;;4.66;41.77;101034.66;5057093;28;45397;-51
2022/03/08 02:54:43;;;;;;;;;34.50;33.00;;;;;4.73;41.94;101049.28;5056909;28;45506;-52
2022/03/08 02:57:09;;;;;;;;;38.50;31.50;;;;;4.59;42.49;101037.19;5055689;28;46247;-52
2022/03/08 02:59:34;;;;;;;;;38.50;33.50;;;;;4.62;42.62;101047.72;5038514;28;45433;-51
2022/03/08 03:02:02;;;;;;;;;31.25;30.50;;;;;4.60;42.52;101034.28;5057236;28;45402;-52
2022/03/08 03:04:27;;;;;;;;;39.00;34.75;;;;;4.65;42.15;101041.97;5056968;28;45357;-53
2022/03/08 03:06:53;;;;;;;;;40.50;34.75;;;;;4.58;42.07;101030.03;5055451;28;46680;-51
2022/03/08 03:09:18;;;;;;;;;40.50;35.25;;;;;4.51;41.95;101015.41;5056868;28;45358;-49
2022/03/08 03:11:44;;;;;;;;;33.50;33.50;;;;;4.64;42.68;101042.97;5056698;28;45423;-51
2022/03/08 03:14:10;;;;;;;;;43.00;37.00;;;;;4.65;42.16;101041.13;5056966;28;45662;-52
2022/03/08 03:16:36;;;;;;;;;39.25;32.25;;;;;4.64;42.13;101032.09;5056671;28;45405;-52
2022/03/08 03:19:01;;;;;;;;;43.00;30.75;;;;;4.62;41.97;101031.41;5056875;28;45744;-51
2022/03/08 03:21:27;;;;;;;;;43.25;33.75;;;;;4.64;42.80;101037.53;5055447;28;45433;-52
2022/03/08 03:23:52;;;;;;;;;44.25;37.00;;;;;4.63;42.34;101037.72;5056480;28;45559;-53
2022/03/08 03:26:18;;;;;;;;;44.75;34.50;;;;;4.45;42.89;101000.63;5056524;28;45444;-51
2022/03/08 03:28:44;;;;;;;;;45.75;34.50;;;;;4.64;42.22;101031.25;5056493;28;45428;-51
2022/03/08 03:31:09;;;;;;;;;36.25;31.50;;;;;4.61;42.28;101033.28;5056485;28;45425;-53
2022/03/08 03:33:35;;;;;;;;;39.75;32.50;;;;;4.60;42.67;101028.84;5056543;28;45508;-51
2022/03/08 03:36:00;;;;;;;;;51.50;39.00;;;;;4.58;42.20;101019.16;5056155;27;46257;-51
2022/03/08 03:38:26;;;;;;;;;41.50;35.50;;;;;4.59;42.80;101019.00;5054854;28;45381;-51
2022/03/08 03:40:51;;;;;;;;;42.00;38.75;;;;;4.57;42.23;101017.47;5056199;28;45760;-50
2022/03/08 03:43:17;;;;;;;;;47.50;41.00;;;;;4.56;42.46;101021.19;5055307;28;45385;-51
2022/03/08 03:45:42;;;;;;;;;47.00;41.00;;;;;4.55;42.87;101014.06;5055820;28;45439;-52
2022/03/08 03:48:08;;;;;;;;;46.00;35.50;;;;;4.52;42.47;100998.94;5071115;27;45329;-52
2022/03/08 03:50:34;;;;;;;;;35.00;30.00;;;;;4.27;42.53;100970.84;5056425;28;45299;-54
2022/03/08 03:52:59;;;;;;;;;36.50;31.50;;;;;4.45;43.06;101014.22;5056672;28;45265;-48
2022/03/08 03:55:25;;;;;;;;;49.25;38.00;;;;;4.48;42.74;101017.44;5055888;28;46105;-52
2022/03/08 03:57:50;;;;;;;;;41.00;35.00;;;;;4.40;42.94;101006.56;5056509;28;45448;-52
2022/03/08 04:00:16;;;;;;;;;41.50;36.50;;;;;4.46;42.89;101015.91;5056329;28;45900;-54
2022/03/08 04:02:42;;;;;;;;;37.00;28.75;;;;;4.42;42.65;101014.50;5056566;28;45559;-52
2022/03/08 04:05:08;;;;;;;;;40.75;37.25;;;;;4.44;42.97;101032.38;5055921;28;45416;-51
2022/03/08 04:07:33;;;;;;;;;41.25;36.25;;;;;4.43;43.22;101016.25;5056139;28;45318;-52
2022/03/08 04:09:59;;;;;;;;;33.75;25.25;;;;;4.44;43.17;101017.94;5056293;28;45319;-53
2022/03/08 04:12:24;;;;;;;;;55.00;42.25;;;;;4.27;43.24;101006.16;5021227;28;45378;-51
2022/03/08 04:14:50;;;;;;;;;42.25;33.25;;;;;4.37;43.38;101028.59;5056049;28;46193;-52
2022/03/08 04:17:15;;;;;;;;;45.50;37.75;;;;;4.22;43.92;100992.22;5055811;28;45360;-49
2022/03/08 04:19:42;;;;;;;;;37.00;34.25;;;;;4.37;43.45;101025.88;5055260;28;45292;-53
2022/03/08 04:22:08;;;;;;;;;43.50;38.25;;;;;4.37;43.51;101019.63;5054785;28;45496;-53
2022/03/08 04:24:34;;;;;;;;;38.00;33.75;;;;;4.39;43.44;101020.28;5055736;28;45326;-50
2022/03/08 04:26:59;;;;;;;;;44.50;35.00;;;;;3.72;43.51;100908.66;5055947;28;45409;-51
2022/03/08 04:29:25;;;;;;;;;47.75;37.25;;;;;4.42;43.40;101020.81;5055490;28;45278;-52
2022/03/08 04:31:50;;;;;;;;;47.25;36.75;;;;;4.34;43.13;101010.75;5056348;28;45388;-55
2022/03/08 04:34:16;;;;;;;;;42.00;35.50;;;;;4.37;43.18;101006.88;5055550;28;45392;-49
2022/03/08 04:36:41;;;;;;;;;45.00;34.50;;;;;4.37;43.13;101012.28;5071326;28;45383;-51
2022/03/08 04:39:07;;;;;;;;;37.00;33.00;;;;;4.32;43.57;101003.81;5055911;28;45404;-50
2022/03/08 04:41:32;;;;;;;;;45.75;39.50;;;;;4.32;43.12;101003.81;5055963;28;45433;-51
2022/03/08 04:43:58;;;;;;;;;38.75;33.50;;;;;4.33;42.82;101002.78;5055676;28;46362;-52
2022/03/08 04:46:24;;;;;;;;;44.60;39.60;;;;;4.30;43.38;101003.97;5055491;28;45410;-54
2022/03/08 04:48:49;;;;;;;;;36.50;32.75;;;;;4.29;43.91;101001.41;5055841;28;45409;-53
2022/03/08 04:51:15;;;;;;;;;42.50;40.25;;;;;4.25;43.21;101000.88;5054381;28;45268;-53
2022/03/08 04:53:42;;;;;;;;;42.00;39.50;;;;;4.23;43.39;101004.78;5055511;28;45330;-51
2022/03/08 04:56:07;;;;;;;;;47.00;39.75;;;;;4.22;43.54;101003.06;5037059;28;45881;-51
2022/03/08 04:58:34;;;;;;;;;47.50;38.25;;;;;4.00;43.50;100970.88;5055318;28;45384;-52
2022/03/08 05:01:00;;;;;;;;;39.50;33.50;;;;;4.18;43.67;101006.09;5054922;28;45367;-54
2022/03/08 05:03:25;;;;;;;;;39.50;35.75;;;;;4.20;43.53;101001.38;5053555;28;46318;-51
2022/03/08 05:05:50;;;;;;;;;39.75;33.50;;;;;4.20;44.02;101003.22;5053810;28;45501;-53
2022/03/08 05:08:16;;;;;;;;;40.50;34.75;;;;;4.13;43.44;100994.91;5054925;28;45385;-50
2022/03/08 05:10:42;;;;;;;;;35.75;32.00;;;;;3.96;44.10;100983.13;5055265;28;45326;-53
2022/03/08 05:13:08;;;;;;;;;40.00;33.75;;;;;3.97;43.98;100992.09;5036778;28;46076;-53
2022/03/08 05:15:33;;;;;;;;;50.75;42.50;;;;;3.95;43.77;100984.09;5053820;28;45511;-51
2022/03/08 05:17:59;;;;;;;;;54.75;43.50;;;;;4.06;43.75;100994.69;5054262;28;45412;-51
2022/03/08 05:20:24;;;;;;;;;47.75;43.25;;;;;4.10;43.85;100995.22;5054080;28;45559;-53
2022/03/08 05:22:50;;;;;;;;;43.75;39.75;;;;;4.12;44.14;100998.63;5054935;28;46335;-50
2022/03/08 05:25:16;;;;;;;;;43.00;35.50;;;;;3.83;43.73;100969.97;5054888;28;45397;-51
2022/03/08 05:27:41;;;;;;;;;44.00;39.00;;;;;3.99;44.11;100984.66;5037335;28;45350;-52
2022/03/08 05:30:08;;;;;;;;;55.75;43.00;;;;;4.03;44.00;100997.75;5055413;28;45438;-54
2022/03/08 05:32:33;;;;;;;;;45.50;35.50;;;;;3.98;43.78;100982.94;5054908;28;45669;-50
2022/03/08 05:34:59;;;;;;;;;44.25;35.00;;;;;4.05;44.30;100992.13;5036780;28;45421;-48
2022/03/08 05:37:24;;;;;;;;;47.50;39.50;;;;;4.06;44.67;100989.25;5054822;28;45153;-52
2022/03/08 05:39:50;;;;;;;;;38.50;33.75;;;;;4.07;44.35;100992.84;5055515;28;45250;-55
2022/03/08 05:42:15;;;;;;;;;41.25;35.50;;;;;4.03;43.96;100989.59;5053254;28;46443;-54
2022/03/08 05:44:41;;;;;;;;;44.25;39.50;;;;;3.85;44.53;100954.34;5054802;28;45405;-54
2022/03/08 05:47:06;;;;;;;;;42.25;36.75;;;;;4.04;44.20;100988.56;5053420;28;45350;-54
2022/03/08 05:49:32;;;;;;;;;41.75;39.75;;;;;4.01;44.72;100982.63;5054996;28;45424;-54
2022/03/08 05:51:57;;;;;;;;;44.25;37.75;;;;;4.02;44.66;100997.91;5054460;28;45492;-51
2022/03/08 05:54:23;;;;;;;;;46.00;37.25;;;;;4.01;43.79;100994.31;5054756;28;45567;-52
2022/03/08 05:56:49;;;;;;;;;44.00;38.00;;;;;3.91;44.49;100983.56;5054374;28;45442;-49
2022/03/08 05:59:14;;;;;;;;;55.25;42.50;;;;;3.93;44.19;100987.00;5053715;28;45477;-52
2022/03/08 06:01:40;;;;;;;;;53.00;40.50;;;;;3.91;44.64;100983.56;5054423;28;46231;-51
2022/03/08 06:04:05;;;;;;;;;52.25;36.75;;;;;3.93;44.62;100997.00;5053299;28;45411;-51
2022/03/08 06:06:31;;;;;;;;;50.25;42.00;;;;;3.95;44.70;100999.56;5054572;28;45305;-54
2022/03/08 06:08:57;;;;;;;;;25.50;19.00;;;;;3.95;44.66;101005.00;5053779;28;45609;-50
2022/03/08 06:11:22;;;;;;;;;51.00;39.00;;;;;3.93;44.93;101007.88;5055390;28;45384;-53
2022/03/08 06:13:48;;;;;;;;;52.50;39.75;;;;;3.93;44.65;101011.44;5057686;27;45536;-53
2022/03/08 06:16:13;;;;;;;;;46.00;38.75;;;;;3.96;44.81;101009.41;5057897;28;45374;-50
2022/03/08 06:18:40;;;;;;;;;50.75;41.75;;;;;3.99;44.45;101014.53;5057126;28;45698;-53
2022/03/08 06:21:05;;;;;;;;;45.00;38.75;;;;;3.99;44.40;101009.09;5057620;28;45501;-50
2022/03/08 06:23:31;;;;;;;;;44.25;40.50;;;;;3.95;44.77;101007.72;5057726;28;45328;-53
2022/03/08 06:25:56;;;;;;;;;46.25;39.50;;;;;3.69;44.57;100979.56;5057633;28;45333;-52
2022/03/08 06:28:22;;;;;;;;;42.75;40.50;;;;;3.91;45.14;101013.44;5058158;28;45554;-51
2022/03/08 06:30:47;;;;;;;;;45.50;40.50;;;;;3.95;44.98;101013.97;5057495;28;45380;-52
2022/03/08 06:33:13;;;;;;;;;51.75;39.75;;;;;3.95;44.61;101013.97;5057502;28;45475;-52
2022/03/08 06:35:38;;;;;;;;;47.50;42.25;;;;;3.91;44.93;100999.88;5057939;28;45832;-53
2022/03/08 06:38:04;;;;;;;;;32.00;25.00;;;;;3.98;44.76;101015.53;5057517;28;45707;-53
2022/03/08 06:40:30;;;;;;;;;48.75;40.00;;;;;3.93;45.22;100999.72;5057709;28;46081;-55
2022/03/08 06:42:55;;;;;;;;;44.50;38.25;;;;;3.83;44.88;100985.41;5057357;28;45375;-56
2022/03/08 06:45:21;;;;;;;;;52.00;38.75;;;;;3.98;44.75;101008.25;5057676;28;45357;-54
2022/03/08 06:47:46;;;;;;;;;46.50;37.00;;;;;4.02;44.88;101014.19;5057215;28;45791;-56
2022/03/08 06:50:12;;;;;;;;;53.25;40.25;;;;;4.04;44.83;101014.88;5057373;28;45952;-50
2022/03/08 06:52:37;;;;;;;;;46.25;41.50;;;;;4.06;44.52;101021.03;5057289;28;45384;-52
2022/03/08 06:55:03;;;;;;;;;46.25;38.25;;;;;4.07;44.94;101011.84;5055918;28;45406;-56
2022/03/08 06:57:30;;;;;;;;;57.50;42.25;;;;;4.10;44.89;101014.22;5057691;28;45211;-55
2022/03/08 06:59:55;;;;;;;;;50.75;41.25;;;;;3.98;45.05;100993.78;5057045;28;46723;-55
2022/03/08 07:02:21;;;;;;;;;45.50;41.00;;;;;4.03;44.96;101007.75;5057130;28;45466;-57
2022/03/08 07:04:47;;;;;;;;;50.75;39.75;;;;;3.96;44.91;101015.69;5056276;28;45420;-55
2022/03/08 07:07:12;;;;;;;;;52.50;41.75;;;;;3.77;44.52;100989.63;5057402;28;45382;-53
2022/03/08 07:09:38;;;;;;;;;50.25;40.00;;;;;3.97;45.27;101008.38;5057244;28;45583;-51
2022/03/08 07:12:04;;;;;;;;;49.75;40.75;;;;;3.31;45.05;100908.44;5072592;28;45399;-55
2022/03/08 07:14:29;;;;;;;;;47.25;35.25;;;;;3.98;45.07;101016.38;5057103;27;45416;-56
2022/03/08 07:16:55;;;;;;;;;46.25;36.75;;;;;3.96;44.88;101009.41;5056989;28;45298;-56
2022/03/08 07:19:20;;;;;;;;;47.25;41.75;;;;;4.03;44.64;101011.31;5055855;28;46289;-51
2022/03/08 07:21:46;;;;;;;;;48.25;37.25;;;;;4.05;44.89;101011.13;5055667;28;45408;-52
2022/03/08 07:24:13;;;;;;;;;52.50;42.00;;;;;3.82;45.17;100975.53;5056012;28;45348;-56
2022/03/08 07:26:38;;;;;;;;;43.75;36.75;;;;;4.11;45.03;101018.63;5055840;28;45634;-55
2022/03/08 07:29:04;;;;;;;;;48.00;41.50;;;;;4.13;45.07;101019.34;5056630;28;46440;-55
2022/03/08 07:31:29;;;;;;;;;42.75;38.75;;;;;4.15;44.98;101030.91;5057165;28;45865;-57
2022/03/08 07:33:55;;;;;;;;;45.25;39.75;;;;;3.86;44.69;100983.22;5044014;28;46441;-58
2022/03/08 07:36:21;;;;;;;;;46.25;37.25;;;;;4.18;45.42;101036.00;5009307;27;46153;-54
2022/03/08 07:38:47;;;;;;;;;59.75;43.75;;;;;4.07;45.17;101014.56;5063920;28;46551;-51
2022/03/08 07:41:13;;;;;;;;;52.50;44.50;;;;;4.15;45.08;101036.34;5056140;28;45893;-50
2022/03/08 07:43:39;;;;;;;;;65.75;47.50;;;;;4.14;45.03;101045.50;5056599;28;45696;-54
2022/03/08 07:46:06;;;;;;;;;44.25;40.00;;;;;3.87;44.97;101014.81;5089436;27;45605;-55
2022/03/08 07:48:32;;;;;;;;;49.75;41.00;;;;;3.76;44.64;100987.91;5054619;28;47013;-54
2022/03/08 07:50:57;;;;;;;;;51.25;40.75;;;;;4.03;44.94;101043.91;5072366;28;45633;-55
2022/03/08 07:53:23;;;;;;;;;55.25;42.00;;;;;4.06;45.48;101045.47;5056635;28;45416;-52
2022/03/08 07:55:48;;;;;;;;;47.25;41.00;;;;;4.16;44.75;101053.50;5056548;28;45630;-52
2022/03/08 07:58:14;;;;;;;;;45.50;36.25;;;;;4.20;44.91;101052.13;5054998;28;46188;-50
2022/03/08 08:00:43;;;;;;;;;56.75;41.00;;;;;4.19;44.94;101036.84;5056232;28;45531;-51
2022/03/08 08:03:08;;;;;;;;;44.75;40.75;;;;;4.06;45.11;101023.72;5048111;28;45428;-50
2022/03/08 08:05:35;;;;;;;;;47.25;40.25;;;;;4.20;44.24;101044.84;5034973;28;45384;-52
2022/03/08 08:08:02;;;;;;;;;58.25;42.00;;;;;4.19;44.19;101056.75;5049982;28;46599;-53
2022/03/08 08:10:27;;;;;;;;;48.00;42.00;;;;;4.14;45.11;101050.94;5044301;28;45446;-55
2022/03/08 08:12:53;;;;;;;;;57.75;43.75;;;;;4.13;45.15;101048.38;5044911;28;45373;-54
2022/03/08 08:15:18;;;;;;;;;48.50;41.00;;;;;4.09;44.76;101052.41;5034623;28;45595;-53
2022/03/08 08:17:44;;;;;;;;;48.00;41.25;;;;;4.06;45.24;101050.91;5000021;27;46031;-56
2022/03/08 08:20:10;;;;;;;;;49.75;39.50;;;;;3.96;44.51;101026.56;5061630;27;45688;-57
2022/03/08 08:22:36;;;;;;;;;52.75;43.25;;;;;4.09;45.01;101047.84;5048786;28;45561;-56
2022/03/08 08:25:03;;;;;;;;;57.00;44.50;;;;;3.99;44.76;101033.53;5051833;27;45361;-63
2022/03/08 08:27:28;;;;;;;;;63.25;44.25;;;;;3.95;45.05;101024.00;5032090;28;46969;-54
2022/03/08 08:29:54;;;;;;;;;50.50;41.50;;;;;4.11;45.16;101044.97;5051236;28;45731;-55
2022/03/08 08:32:19;;;;;;;;;62.50;47.25;;;;;4.17;45.04;101047.88;5050851;28;45820;-54
2022/03/08 08:34:45;;;;;;;;;49.75;44.50;;;;;4.20;44.55;101058.44;5083059;27;45555;-53
2022/03/08 08:37:11;;;;;;;;;51.50;41.75;;;;;4.16;44.77;101059.75;5024549;28;45949;-51
2022/03/08 08:39:37;;;;;;;;;57.50;46.50;;;;;4.07;45.18;101041.72;5043033;28;45657;-50
2022/03/08 08:42:03;;;;;;;;;41.50;39.00;;;;;4.20;45.60;101053.00;5048028;28;45551;-52
2022/03/08 08:44:29;;;;;;;;;47.00;42.50;;;;;4.22;45.32;101060.13;5047230;28;45903;-48
2022/03/08 08:46:55;;;;;;;;;47.25;43.00;;;;;4.28;45.25;101056.78;5049492;28;46343;-51
2022/03/08 08:49:20;;;;;;;;;44.25;29.50;;;;;4.38;45.23;101065.63;5050364;28;45490;-52
2022/03/08 08:51:46;;;;;;;;;57.75;45.25;;;;;4.38;44.77;101049.31;5064826;28;45832;-49
2022/03/08 08:54:11;;;;;;;;;58.75;49.50;;;;;4.42;45.25;101053.44;5051094;28;45901;-55
2022/03/08 08:56:38;;;;;;;;;52.25;40.00;;;;;4.45;44.50;101068.56;5049491;28;45686;-48
2022/03/08 08:59:04;;;;;;;;;59.75;48.50;;;;;4.47;45.30;101055.66;5050671;28;45766;-51
2022/03/08 09:01:30;;;;;;;;;60.75;49.00;;;;;4.54;44.87;101061.31;5051350;28;45838;-50
2022/03/08 09:03:55;;;;;;;;;57.25;45.00;;;;;4.58;44.70;101062.66;5051575;28;45513;-50
2022/03/08 09:06:21;;;;;;;;;55.25;47.00;;;;;4.64;45.43;101067.44;5083464;27;46480;-50
2022/03/08 09:08:47;;;;;;;;;61.25;46.25;;;;;4.67;45.23;101058.97;5049522;28;45761;-51
2022/03/08 09:11:12;;;;;;;;;53.75;42.75;;;;;4.71;45.10;101052.16;5030671;28;45449;-49
2022/03/08 09:13:38;;;;;;;;;55.50;45.75;;;;;4.77;45.33;101056.09;5049216;28;45420;-53
2022/03/08 09:16:04;;;;;;;;;61.00;45.50;;;;;4.82;44.78;101055.59;5048888;28;46584;-52
2022/03/08 09:18:30;;;;;;;;;47.50;33.50;;;;;4.82;44.56;101053.75;5009201;28;45788;-53
2022/03/08 09:20:55;;;;;;;;;54.50;47.25;;;;;4.88;44.35;101052.22;5023709;28;45468;-52
2022/03/08 09:23:21;;;;;;;;;58.25;45.75;;;;;4.95;44.37;101055.97;5062942;28;45695;-50
2022/03/08 09:25:46;;;;;;;;;51.25;43.00;;;;;5.01;44.65;101051.72;5028444;28;47183;-50
2022/03/08 09:28:12;;;;;;;;;55.25;44.50;;;;;5.07;44.63;101050.22;5021271;28;45966;-53
2022/03/08 09:30:37;;;;;;;;;60.25;48.25;;;;;5.08;44.22;101044.59;5028320;28;45450;-50
2022/03/08 09:33:03;;;;;;;;;61.25;47.00;;;;;5.18;44.62;101049.03;5027787;28;45586;-52
2022/03/08 09:35:29;;;;;;;;;47.25;41.00;;;;;5.00;44.15;101007.34;5028640;28;45929;-54
2022/03/08 09:37:55;;;;;;;;;53.75;42.25;;;;;5.28;44.36;101034.25;5029970;28;45545;-55
2022/03/08 09:40:20;;;;;;;;;63.00;50.50;;;;;5.31;43.67;101049.38;5029046;28;45847;-53
2022/03/08 09:42:46;;;;;;;;;55.50;45.75;;;;;5.40;44.63;101045.63;5030524;28;45388;-53
2022/03/08 09:45:11;;;;;;;;;55.50;46.75;;;;;5.47;44.24;101045.81;5028824;28;46610;-56
2022/03/08 09:47:38;;;;;;;;;56.50;45.50;;;;;5.54;44.87;101035.06;5032662;28;45482;-54
2022/03/08 09:50:04;;;;;;;;;53.50;43.50;;;;;5.61;44.46;101041.53;5064185;28;45551;-52
2022/03/08 09:52:32;;;;;;;;;52.25;44.25;;;;;5.56;44.19;101022.16;5032856;28;46004;-56
2022/03/08 09:54:58;;;;;;;;;62.75;47.50;;;;;5.49;44.97;100999.38;5048603;28;46824;-53
2022/03/08 09:57:24;;;;;;;;;63.00;49.25;;;;;5.84;44.36;101036.22;5030762;28;45447;-53
2022/03/08 09:59:49;;;;;;;;;48.50;43.25;;;;;5.92;43.68;101035.34;5033878;28;45785;-56
2022/03/08 10:02:15;;;;;;;;;55.50;45.25;;;;;5.74;44.31;100985.69;5032250;28;45408;-55
2022/03/08 10:04:41;;;;;;;;;64.00;49.25;;;;;6.15;43.81;101033.78;5032103;28;45517;-51
2022/03/08 10:07:11;;;;;;;;;60.50;44.75;;;;;5.75;43.40;100952.81;5033437;28;45488;-53
2022/03/08 10:09:36;;;;;;;;;66.25;48.00;;;;;6.46;43.30;101036.56;5047596;28;45950;-51
2022/03/08 10:12:03;;;;;;;;;63.75;50.00;;;;;6.45;42.65;101012.22;5033811;28;45459;-51
2022/03/08 10:14:39;;;;;;;;;55.25;44.00;;;;;6.71;42.79;101028.25;5010059;28;46374;-51
2022/03/08 10:17:09;;;;;;;;;60.25;48.00;;;;;6.69;42.53;101004.91;5063836;28;45827;-51
2022/03/08 10:19:47;;;;;;;;;64.00;48.75;;;;;6.94;42.10;101019.25;5055218;28;45533;-52
2022/03/08 10:22:30;;;;;;;;;64.75;49.75;;;;;7.12;42.15;101021.69;5064358;28;45451;-52
2022/03/08 10:25:11;;;;;;;;;58.50;47.00;;;;;7.22;41.62;101015.13;5031766;28;46905;-53
2022/03/08 10:27:37;;;;;;;;;56.50;43.00;;;;;7.29;41.70;101007.91;5032615;28;45758;-51
2022/03/08 10:30:04;;;;;;;;;60.00;47.00;;;;;7.35;41.25;100996.25;5027731;28;45374;-52
2022/03/08 10:32:36;;;;;;;;;62.75;49.00;;;;;7.53;41.01;101006.00;5036407;28;45690;-54
2022/03/08 10:35:01;;;;;;;;;59.00;43.25;;;;;7.63;41.53;101003.00;5014225;28;46972;-50
2022/03/08 10:37:33;;;;;;;;;64.25;46.50;;;;;7.77;40.80;101009.50;5035609;28;45329;-53
2022/03/08 10:40:04;;;;;;;;;60.75;49.25;;;;;7.82;40.34;101007.06;5036450;28;45468;-50
2022/03/08 10:42:35;;;;;;;;;63.75;48.50;;;;;7.90;40.51;100996.03;5018864;28;45938;-54
2022/03/08 10:45:08;;;;;;;;;59.00;42.25;;;;;7.77;40.57;100958.44;5030858;28;45939;-53
2022/03/08 10:47:39;;;;;;;;;58.50;44.75;;;;;7.92;40.43;100957.59;5034718;28;45559;-57
2022/03/08 10:50:05;;;;;;;;;66.50;51.00;;;;;7.97;40.53;100939.59;5019415;28;45627;-52
2022/03/08 10:52:36;;;;;;;;;64.00;49.00;;;;;8.43;40.04;101000.50;5031109;28;45405;-55
2022/03/08 10:55:19;;;;;;;;;56.50;44.75;;;;;8.56;39.87;100988.06;5035665;28;45504;-56
2022/03/08 10:57:55;;;;;;;;;60.75;46.00;;;;;8.70;39.74;100992.66;5035296;28;45438;-51
2022/03/08 11:00:26;;;;;;;;;66.75;51.50;;;;;8.83;39.18;100989.22;5035613;28;45395;-55
2022/03/08 11:02:55;;;;;;;;;62.25;48.75;;;;;8.93;38.75;100983.44;5035419;28;45531;-54
2022/03/08 11:05:22;;;;;;;;;63.25;49.25;;;;;9.03;38.70;100970.25;5036186;28;45941;-55
2022/03/08 11:07:48;;;;;;;;;61.75;48.75;;;;;9.17;38.66;100978.59;5034569;28;45570;-56
2022/03/08 11:10:14;;;;;;;;;57.50;45.50;;;;;9.24;38.73;100971.31;5036219;28;45407;-55
2022/03/08 11:12:40;;;;;;;;;61.75;49.75;;;;;9.33;39.16;100966.50;5034897;28;46031;-54